sensor_id;sensor_type;location;lat;lon;timestamp;P1;durP1;ratioP1;P2;durP2;ratioP2
44766;SDS011;30487;48.716;9.272;2023-02-11T00:01:59;43.22;;;18.83;;
44766;SDS011;30487;48.716;9.272;2023-02-11T00:04:25;45.53;;;18.60;;
44766;SDS011;30487;48.716;9.272;2023-02-11T00:06:50;48.63;;;19.75;;
44766;SDS011;30487;48.716;9.272;2023-02-11T00:09:16;42.42;;;18.95;;
44766;SDS011;30487;48.716;9.272;2023-02-11T00:11:41;46.63;;;19.92;;
44766;SDS011;30487;48.716;9.272;2023-02-11T00:14:08;42.33;;;17.60;;
44766;SDS011;30487;48.716;9.272;2023-02-11T00:16:35;45.33;;;18.77;;
44766;SDS011;30487;48.716;9.272;2023-02-11T00:19:01;42.20;;;18.13;;
44766;SDS011;30487;48.716;9.272;2023-02-11T00:21:29;40.42;;;17.92;;
44766;SDS011;30487;48.716;9.272;2023-02-11T00:23:55;45.08;;;18.58;;
44766;SDS011;30487;48.716;9.272;2023-02-11T00:26:23;43.85;;;18.45;;
44766;SDS011;30487;48.716;9.272;2023-02-11T00:28:51;43.25;;;17.98;;
44766;SDS011;30487;48.716;9.272;2023-02-11T00:31:17;44.00;;;18.60;;
44766;SDS011;30487;48.716;9.272;2023-02-11T00:33:45;44.60;;;18.58;;
44766;SDS011;30487;48.716;9.272;2023-02-11T00:36:12;38.47;;;17.55;;
44766;SDS011;30487;48.716;9.272;2023-02-11T00:38:41;42.15;;;17.65;;
44766;SDS011;30487;48.716;9.272;2023-02-11T00:41:08;43.38;;;17.80;;
44766;SDS011;30487;48.716;9.272;2023-02-11T00:43:34;42.40;;;18.90;;
44766;SDS011;30487;48.716;9.272;2023-02-11T00:46:00;37.55;;;16.95;;
44766;SDS011;30487;48.716;9.272;2023-02-11T00:48:26;44.25;;;18.27;;
44766;SDS011;30487;48.716;9.272;2023-02-11T00:50:52;42.20;;;17.50;;
44766;SDS011;30487;48.716;9.272;2023-02-11T00:53:18;40.92;;;18.05;;
44766;SDS011;30487;48.716;9.272;2023-02-11T00:55:43;46.65;;;19.02;;
44766;SDS011;30487;48.716;9.272;2023-02-11T00:58:09;41.90;;;17.75;;
44766;SDS011;30487;48.716;9.272;2023-02-11T01:00:34;43.92;;;18.77;;
44766;SDS011;30487;48.716;9.272;2023-02-11T01:03:00;44.55;;;17.85;;
44766;SDS011;30487;48.716;9.272;2023-02-11T01:05:26;45.47;;;18.63;;
44766;SDS011;30487;48.716;9.272;2023-02-11T01:07:52;40.75;;;17.63;;
44766;SDS011;30487;48.716;9.272;2023-02-11T01:10:18;44.20;;;18.33;;
44766;SDS011;30487;48.716;9.272;2023-02-11T01:12:44;37.08;;;16.48;;
44766;SDS011;30487;48.716;9.272;2023-02-11T01:15:10;42.88;;;18.13;;
44766;SDS011;30487;48.716;9.272;2023-02-11T01:17:38;41.15;;;17.52;;
44766;SDS011;30487;48.716;9.272;2023-02-11T01:20:05;39.78;;;17.35;;
44766;SDS011;30487;48.716;9.272;2023-02-11T01:22:32;38.85;;;17.80;;
44766;SDS011;30487;48.716;9.272;2023-02-11T01:24:58;42.42;;;18.60;;
44766;SDS011;30487;48.716;9.272;2023-02-11T01:27:24;40.53;;;17.50;;
44766;SDS011;30487;48.716;9.272;2023-02-11T01:29:50;43.97;;;17.27;;
44766;SDS011;30487;48.716;9.272;2023-02-11T01:32:16;43.30;;;17.98;;
44766;SDS011;30487;48.716;9.272;2023-02-11T01:34:41;42.72;;;17.85;;
44766;SDS011;30487;48.716;9.272;2023-02-11T01:37:07;41.70;;;17.70;;
44766;SDS011;30487;48.716;9.272;2023-02-11T01:39:33;44.30;;;18.45;;
44766;SDS011;30487;48.716;9.272;2023-02-11T01:41:59;40.35;;;17.17;;
44766;SDS011;30487;48.716;9.272;2023-02-11T01:46:58;43.42;;;17.73;;
44766;SDS011;30487;48.716;9.272;2023-02-11T01:49:28;39.58;;;17.88;;
44766;SDS011;30487;48.716;9.272;2023-02-11T01:54:40;38.17;;;17.60;;
44766;SDS011;30487;48.716;9.272;2023-02-11T01:57:28;36.38;;;17.20;;
44766;SDS011;30487;48.716;9.272;2023-02-11T02:00:10;42.30;;;17.48;;
44766;SDS011;30487;48.716;9.272;2023-02-11T02:02:49;39.58;;;17.27;;
44766;SDS011;30487;48.716;9.272;2023-02-11T02:10:47;38.85;;;17.15;;
44766;SDS011;30487;48.716;9.272;2023-02-11T02:13:17;41.05;;;16.73;;
44766;SDS011;30487;48.716;9.272;2023-02-11T02:16:00;41.75;;;17.23;;
44766;SDS011;30487;48.716;9.272;2023-02-11T02:29:50;42.13;;;16.77;;
44766;SDS011;30487;48.716;9.272;2023-02-11T02:32:25;35.40;;;16.05;;
44766;SDS011;30487;48.716;9.272;2023-02-11T02:37:55;39.40;;;16.45;;
44766;SDS011;30487;48.716;9.272;2023-02-11T02:40:36;38.13;;;16.35;;
44766;SDS011;30487;48.716;9.272;2023-02-11T02:43:07;39.05;;;16.88;;
44766;SDS011;30487;48.716;9.272;2023-02-11T02:45:34;39.97;;;16.48;;
44766;SDS011;30487;48.716;9.272;2023-02-11T02:48:00;37.80;;;16.80;;
44766;SDS011;30487;48.716;9.272;2023-02-11T02:50:27;37.78;;;16.95;;
44766;SDS011;30487;48.716;9.272;2023-02-11T03:09:43;38.97;;;16.40;;
44766;SDS011;30487;48.716;9.272;2023-02-11T03:11:54;36.85;;;16.88;;
44766;SDS011;30487;48.716;9.272;2023-02-11T03:14:21;37.85;;;16.55;;
44766;SDS011;30487;48.716;9.272;2023-02-11T03:16:51;35.35;;;16.25;;
44766;SDS011;30487;48.716;9.272;2023-02-11T03:19:20;38.33;;;16.63;;
44766;SDS011;30487;48.716;9.272;2023-02-11T03:22:11;40.22;;;17.15;;
44766;SDS011;30487;48.716;9.272;2023-02-11T03:24:48;38.63;;;17.38;;
44766;SDS011;30487;48.716;9.272;2023-02-11T03:27:25;38.33;;;16.92;;
44766;SDS011;30487;48.716;9.272;2023-02-11T03:32:28;40.00;;;16.60;;
44766;SDS011;30487;48.716;9.272;2023-02-11T03:38:14;42.95;;;16.45;;
44766;SDS011;30487;48.716;9.272;2023-02-11T03:40:46;43.67;;;16.83;;
44766;SDS011;30487;48.716;9.272;2023-02-11T03:43:25;38.75;;;15.68;;
44766;SDS011;30487;48.716;9.272;2023-02-11T03:45:55;26.30;;;11.82;;
44766;SDS011;30487;48.716;9.272;2023-02-11T03:48:24;35.83;;;16.77;;
44766;SDS011;30487;48.716;9.272;2023-02-11T03:50:54;40.42;;;16.60;;
44766;SDS011;30487;48.716;9.272;2023-02-11T03:53:22;36.28;;;16.58;;
44766;SDS011;30487;48.716;9.272;2023-02-11T03:55:48;35.75;;;16.00;;
44766;SDS011;30487;48.716;9.272;2023-02-11T03:58:16;37.40;;;16.75;;
44766;SDS011;30487;48.716;9.272;2023-02-11T04:00:43;37.33;;;16.08;;
44766;SDS011;30487;48.716;9.272;2023-02-11T04:03:10;38.35;;;16.55;;
44766;SDS011;30487;48.716;9.272;2023-02-11T04:05:36;37.25;;;16.77;;
44766;SDS011;30487;48.716;9.272;2023-02-11T04:08:02;35.97;;;15.90;;
44766;SDS011;30487;48.716;9.272;2023-02-11T04:10:28;35.28;;;16.33;;
44766;SDS011;30487;48.716;9.272;2023-02-11T04:12:53;41.85;;;17.10;;
44766;SDS011;30487;48.716;9.272;2023-02-11T04:15:19;39.53;;;16.52;;
44766;SDS011;30487;48.716;9.272;2023-02-11T04:17:45;41.97;;;16.77;;
44766;SDS011;30487;48.716;9.272;2023-02-11T04:20:10;40.53;;;17.38;;
44766;SDS011;30487;48.716;9.272;2023-02-11T04:22:36;42.30;;;17.58;;
44766;SDS011;30487;48.716;9.272;2023-02-11T04:25:02;37.78;;;16.48;;
44766;SDS011;30487;48.716;9.272;2023-02-11T04:27:29;37.28;;;16.98;;
44766;SDS011;30487;48.716;9.272;2023-02-11T04:29:55;39.42;;;16.88;;
44766;SDS011;30487;48.716;9.272;2023-02-11T04:32:21;40.00;;;17.13;;
44766;SDS011;30487;48.716;9.272;2023-02-11T04:34:46;38.83;;;16.65;;
44766;SDS011;30487;48.716;9.272;2023-02-11T04:37:12;35.92;;;16.27;;
44766;SDS011;30487;48.716;9.272;2023-02-11T04:39:38;36.45;;;16.00;;
44766;SDS011;30487;48.716;9.272;2023-02-11T04:42:04;37.95;;;16.90;;
44766;SDS011;30487;48.716;9.272;2023-02-11T04:44:29;38.53;;;16.42;;
44766;SDS011;30487;48.716;9.272;2023-02-11T04:46:55;38.67;;;16.73;;
44766;SDS011;30487;48.716;9.272;2023-02-11T04:49:21;34.78;;;16.15;;
44766;SDS011;30487;48.716;9.272;2023-02-11T04:51:46;35.40;;;16.23;;
44766;SDS011;30487;48.716;9.272;2023-02-11T04:54:12;38.40;;;16.80;;
44766;SDS011;30487;48.716;9.272;2023-02-11T04:56:38;38.30;;;16.92;;
44766;SDS011;30487;48.716;9.272;2023-02-11T04:59:04;35.45;;;16.38;;
44766;SDS011;30487;48.716;9.272;2023-02-11T05:01:30;35.13;;;15.35;;
44766;SDS011;30487;48.716;9.272;2023-02-11T05:03:56;36.50;;;15.40;;
44766;SDS011;30487;48.716;9.272;2023-02-11T05:06:21;38.03;;;16.80;;
44766;SDS011;30487;48.716;9.272;2023-02-11T05:08:47;39.72;;;16.83;;
44766;SDS011;30487;48.716;9.272;2023-02-11T05:11:14;33.80;;;15.75;;
44766;SDS011;30487;48.716;9.272;2023-02-11T05:13:42;37.13;;;15.90;;
44766;SDS011;30487;48.716;9.272;2023-02-11T05:16:08;34.67;;;16.42;;
44766;SDS011;30487;48.716;9.272;2023-02-11T05:18:38;39.92;;;17.27;;
44766;SDS011;30487;48.716;9.272;2023-02-11T05:21:11;33.15;;;16.15;;
44766;SDS011;30487;48.716;9.272;2023-02-11T05:23:41;37.95;;;16.08;;
44766;SDS011;30487;48.716;9.272;2023-02-11T05:26:07;40.10;;;17.33;;
44766;SDS011;30487;48.716;9.272;2023-02-11T05:28:33;38.13;;;16.20;;
44766;SDS011;30487;48.716;9.272;2023-02-11T05:30:59;40.92;;;16.73;;
44766;SDS011;30487;48.716;9.272;2023-02-11T05:33:25;36.25;;;16.45;;
44766;SDS011;30487;48.716;9.272;2023-02-11T05:35:51;39.08;;;16.63;;
44766;SDS011;30487;48.716;9.272;2023-02-11T05:38:23;38.08;;;17.40;;
44766;SDS011;30487;48.716;9.272;2023-02-11T05:40:48;38.53;;;16.20;;
44766;SDS011;30487;48.716;9.272;2023-02-11T05:43:14;36.33;;;15.48;;
44766;SDS011;30487;48.716;9.272;2023-02-11T05:45:39;35.88;;;16.65;;
44766;SDS011;30487;48.716;9.272;2023-02-11T05:48:05;43.63;;;17.35;;
44766;SDS011;30487;48.716;9.272;2023-02-11T05:50:30;38.75;;;16.83;;
44766;SDS011;30487;48.716;9.272;2023-02-11T05:52:56;35.58;;;16.60;;
44766;SDS011;30487;48.716;9.272;2023-02-11T05:55:22;39.47;;;17.60;;
44766;SDS011;30487;48.716;9.272;2023-02-11T05:57:47;35.63;;;16.00;;
44766;SDS011;30487;48.716;9.272;2023-02-11T06:00:13;34.72;;;17.23;;
44766;SDS011;30487;48.716;9.272;2023-02-11T06:02:39;33.20;;;15.65;;
44766;SDS011;30487;48.716;9.272;2023-02-11T06:05:04;42.88;;;16.85;;
44766;SDS011;30487;48.716;9.272;2023-02-11T06:07:30;38.30;;;17.30;;
44766;SDS011;30487;48.716;9.272;2023-02-11T06:09:56;34.50;;;16.13;;
44766;SDS011;30487;48.716;9.272;2023-02-11T06:12:21;32.38;;;15.32;;
44766;SDS011;30487;48.716;9.272;2023-02-11T06:14:47;36.67;;;16.83;;
44766;SDS011;30487;48.716;9.272;2023-02-11T06:17:13;36.08;;;16.58;;
44766;SDS011;30487;48.716;9.272;2023-02-11T06:19:38;36.97;;;16.05;;
44766;SDS011;30487;48.716;9.272;2023-02-11T06:22:04;40.88;;;16.33;;
44766;SDS011;30487;48.716;9.272;2023-02-11T06:24:29;38.40;;;15.88;;
44766;SDS011;30487;48.716;9.272;2023-02-11T06:26:55;34.60;;;16.02;;
44766;SDS011;30487;48.716;9.272;2023-02-11T06:29:21;36.15;;;16.35;;
44766;SDS011;30487;48.716;9.272;2023-02-11T06:31:47;34.33;;;16.05;;
44766;SDS011;30487;48.716;9.272;2023-02-11T06:34:12;40.45;;;16.27;;
44766;SDS011;30487;48.716;9.272;2023-02-11T06:36:38;33.78;;;15.85;;
44766;SDS011;30487;48.716;9.272;2023-02-11T06:39:05;38.58;;;16.67;;
44766;SDS011;30487;48.716;9.272;2023-02-11T06:41:31;39.10;;;16.50;;
44766;SDS011;30487;48.716;9.272;2023-02-11T06:43:56;34.25;;;15.65;;
44766;SDS011;30487;48.716;9.272;2023-02-11T06:46:22;39.50;;;16.33;;
44766;SDS011;30487;48.716;9.272;2023-02-11T06:48:47;34.95;;;16.67;;
44766;SDS011;30487;48.716;9.272;2023-02-11T06:51:13;35.33;;;15.13;;
44766;SDS011;30487;48.716;9.272;2023-02-11T06:53:41;35.83;;;17.13;;
44766;SDS011;30487;48.716;9.272;2023-02-11T06:56:17;39.13;;;16.83;;
44766;SDS011;30487;48.716;9.272;2023-02-11T06:58:44;40.83;;;16.85;;
44766;SDS011;30487;48.716;9.272;2023-02-11T07:01:11;37.53;;;16.80;;
44766;SDS011;30487;48.716;9.272;2023-02-11T07:03:39;39.15;;;17.52;;
44766;SDS011;30487;48.716;9.272;2023-02-11T07:06:07;41.83;;;16.50;;
44766;SDS011;30487;48.716;9.272;2023-02-11T07:08:37;33.70;;;15.75;;
44766;SDS011;30487;48.716;9.272;2023-02-11T07:11:25;36.47;;;15.55;;
44766;SDS011;30487;48.716;9.272;2023-02-11T07:13:51;38.80;;;17.20;;
44766;SDS011;30487;48.716;9.272;2023-02-11T07:16:18;39.40;;;16.20;;
44766;SDS011;30487;48.716;9.272;2023-02-11T07:18:44;35.15;;;16.75;;
44766;SDS011;30487;48.716;9.272;2023-02-11T07:21:12;46.45;;;16.70;;
44766;SDS011;30487;48.716;9.272;2023-02-11T07:23:39;44.85;;;17.58;;
44766;SDS011;30487;48.716;9.272;2023-02-11T07:26:09;44.58;;;17.65;;
44766;SDS011;30487;48.716;9.272;2023-02-11T07:28:36;40.13;;;17.35;;
44766;SDS011;30487;48.716;9.272;2023-02-11T07:31:09;37.63;;;16.98;;
44766;SDS011;30487;48.716;9.272;2023-02-11T07:33:40;40.10;;;16.55;;
44766;SDS011;30487;48.716;9.272;2023-02-11T07:36:06;34.72;;;16.58;;
44766;SDS011;30487;48.716;9.272;2023-02-11T07:38:34;41.13;;;17.73;;
44766;SDS011;30487;48.716;9.272;2023-02-11T07:41:01;39.45;;;17.48;;
44766;SDS011;30487;48.716;9.272;2023-02-11T07:43:29;40.75;;;17.48;;
44766;SDS011;30487;48.716;9.272;2023-02-11T07:45:55;43.45;;;16.70;;
44766;SDS011;30487;48.716;9.272;2023-02-11T07:48:20;42.33;;;17.42;;
44766;SDS011;30487;48.716;9.272;2023-02-11T07:50:46;37.30;;;17.30;;
44766;SDS011;30487;48.716;9.272;2023-02-11T07:53:12;33.75;;;15.95;;
44766;SDS011;30487;48.716;9.272;2023-02-11T07:55:39;35.72;;;16.73;;
44766;SDS011;30487;48.716;9.272;2023-02-11T07:58:07;37.00;;;16.08;;
44766;SDS011;30487;48.716;9.272;2023-02-11T08:00:33;38.40;;;17.38;;
44766;SDS011;30487;48.716;9.272;2023-02-11T08:02:58;33.70;;;16.52;;
44766;SDS011;30487;48.716;9.272;2023-02-11T08:05:24;36.58;;;16.95;;
44766;SDS011;30487;48.716;9.272;2023-02-11T08:07:50;39.03;;;17.27;;
44766;SDS011;30487;48.716;9.272;2023-02-11T08:10:17;37.75;;;16.77;;
44766;SDS011;30487;48.716;9.272;2023-02-11T08:12:42;39.85;;;17.67;;
44766;SDS011;30487;48.716;9.272;2023-02-11T08:15:08;33.17;;;16.38;;
44766;SDS011;30487;48.716;9.272;2023-02-11T08:17:34;37.67;;;17.50;;
44766;SDS011;30487;48.716;9.272;2023-02-11T08:20:00;36.17;;;16.63;;
44766;SDS011;30487;48.716;9.272;2023-02-11T08:22:26;34.63;;;16.08;;
44766;SDS011;30487;48.716;9.272;2023-02-11T08:24:51;32.10;;;15.40;;
44766;SDS011;30487;48.716;9.272;2023-02-11T08:27:17;35.40;;;16.40;;
44766;SDS011;30487;48.716;9.272;2023-02-11T08:29:42;35.92;;;16.33;;
44766;SDS011;30487;48.716;9.272;2023-02-11T08:32:08;38.55;;;16.33;;
44766;SDS011;30487;48.716;9.272;2023-02-11T08:34:34;36.83;;;16.05;;
44766;SDS011;30487;48.716;9.272;2023-02-11T08:37:00;32.10;;;16.08;;
44766;SDS011;30487;48.716;9.272;2023-02-11T08:39:26;41.33;;;16.25;;
44766;SDS011;30487;48.716;9.272;2023-02-11T08:41:52;38.00;;;16.38;;
44766;SDS011;30487;48.716;9.272;2023-02-11T08:44:20;34.97;;;16.88;;
44766;SDS011;30487;48.716;9.272;2023-02-11T08:46:47;32.03;;;16.30;;
44766;SDS011;30487;48.716;9.272;2023-02-11T08:49:14;37.50;;;16.52;;
44766;SDS011;30487;48.716;9.272;2023-02-11T08:51:40;37.00;;;17.15;;
44766;SDS011;30487;48.716;9.272;2023-02-11T08:54:06;32.15;;;16.13;;
44766;SDS011;30487;48.716;9.272;2023-02-11T08:56:34;39.55;;;16.90;;
44766;SDS011;30487;48.716;9.272;2023-02-11T08:59:00;33.38;;;15.73;;
44766;SDS011;30487;48.716;9.272;2023-02-11T09:01:27;32.20;;;14.88;;
44766;SDS011;30487;48.716;9.272;2023-02-11T09:03:54;31.50;;;16.42;;
44766;SDS011;30487;48.716;9.272;2023-02-11T09:06:20;33.92;;;16.00;;
44766;SDS011;30487;48.716;9.272;2023-02-11T09:08:48;30.63;;;16.42;;
44766;SDS011;30487;48.716;9.272;2023-02-11T09:11:16;31.30;;;15.95;;
44766;SDS011;30487;48.716;9.272;2023-02-11T09:13:43;31.08;;;15.35;;
44766;SDS011;30487;48.716;9.272;2023-02-11T09:16:25;28.67;;;14.88;;
44766;SDS011;30487;48.716;9.272;2023-02-11T09:18:55;27.33;;;14.25;;
44766;SDS011;30487;48.716;9.272;2023-02-11T09:21:21;28.65;;;15.60;;
44766;SDS011;30487;48.716;9.272;2023-02-11T09:23:47;30.83;;;15.75;;
44766;SDS011;30487;48.716;9.272;2023-02-11T09:26:14;33.38;;;15.95;;
44766;SDS011;30487;48.716;9.272;2023-02-11T09:28:44;29.98;;;15.65;;
44766;SDS011;30487;48.716;9.272;2023-02-11T09:31:12;29.38;;;17.02;;
44766;SDS011;30487;48.716;9.272;2023-02-11T09:33:43;26.85;;;15.85;;
44766;SDS011;30487;48.716;9.272;2023-02-11T09:36:17;30.38;;;15.43;;
44766;SDS011;30487;48.716;9.272;2023-02-11T09:38:47;31.27;;;17.00;;
44766;SDS011;30487;48.716;9.272;2023-02-11T09:43:57;27.60;;;16.23;;
44766;SDS011;30487;48.716;9.272;2023-02-11T09:46:27;32.90;;;17.58;;
44766;SDS011;30487;48.716;9.272;2023-02-11T09:48:59;32.40;;;16.67;;
44766;SDS011;30487;48.716;9.272;2023-02-11T09:51:38;31.15;;;16.65;;
44766;SDS011;30487;48.716;9.272;2023-02-11T09:54:19;30.00;;;16.40;;
44766;SDS011;30487;48.716;9.272;2023-02-11T09:56:52;29.83;;;16.27;;
44766;SDS011;30487;48.716;9.272;2023-02-11T09:59:17;29.85;;;16.48;;
44766;SDS011;30487;48.716;9.272;2023-02-11T10:07:27;27.60;;;14.55;;
44766;SDS011;30487;48.716;9.272;2023-02-11T10:10:16;26.58;;;14.50;;
44766;SDS011;30487;48.716;9.272;2023-02-11T10:23:58;23.00;;;13.38;;
44766;SDS011;30487;48.716;9.272;2023-02-11T10:26:26;24.20;;;13.50;;
44766;SDS011;30487;48.716;9.272;2023-02-11T10:28:55;22.50;;;13.52;;
44766;SDS011;30487;48.716;9.272;2023-02-11T10:31:25;21.88;;;12.82;;
44766;SDS011;30487;48.716;9.272;2023-02-11T10:34:05;22.33;;;13.25;;
44766;SDS011;30487;48.716;9.272;2023-02-11T10:36:34;26.73;;;13.63;;
44766;SDS011;30487;48.716;9.272;2023-02-11T10:39:18;24.85;;;13.10;;
44766;SDS011;30487;48.716;9.272;2023-02-11T10:41:53;20.67;;;11.80;;
44766;SDS011;30487;48.716;9.272;2023-02-11T10:44:39;19.15;;;11.77;;
44766;SDS011;30487;48.716;9.272;2023-02-11T10:47:14;22.05;;;12.23;;
44766;SDS011;30487;48.716;9.272;2023-02-11T10:49:46;18.02;;;11.25;;
44766;SDS011;30487;48.716;9.272;2023-02-11T10:57:34;18.60;;;10.77;;
44766;SDS011;30487;48.716;9.272;2023-02-11T11:00:25;19.90;;;11.35;;
44766;SDS011;30487;48.716;9.272;2023-02-11T11:02:57;20.00;;;11.25;;
44766;SDS011;30487;48.716;9.272;2023-02-11T11:05:31;19.60;;;10.23;;
44766;SDS011;30487;48.716;9.272;2023-02-11T11:08:06;19.92;;;9.77;;
44766;SDS011;30487;48.716;9.272;2023-02-11T11:10:37;18.38;;;8.98;;
44766;SDS011;30487;48.716;9.272;2023-02-11T11:16:08;16.52;;;9.70;;
44766;SDS011;30487;48.716;9.272;2023-02-11T11:18:34;15.50;;;9.15;;
44766;SDS011;30487;48.716;9.272;2023-02-11T11:21:13;16.23;;;9.50;;
44766;SDS011;30487;48.716;9.272;2023-02-11T11:23:56;19.20;;;9.68;;
44766;SDS011;30487;48.716;9.272;2023-02-11T11:26:29;16.98;;;9.15;;
44766;SDS011;30487;48.716;9.272;2023-02-11T11:29:08;14.32;;;9.02;;
44766;SDS011;30487;48.716;9.272;2023-02-11T11:31:49;12.70;;;8.07;;
44766;SDS011;30487;48.716;9.272;2023-02-11T11:36:56;16.60;;;8.23;;
44766;SDS011;30487;48.716;9.272;2023-02-11T11:39:25;14.63;;;8.07;;
44766;SDS011;30487;48.716;9.272;2023-02-11T11:41:59;12.37;;;7.50;;
44766;SDS011;30487;48.716;9.272;2023-02-11T11:49:41;14.30;;;8.13;;
44766;SDS011;30487;48.716;9.272;2023-02-11T11:55:19;14.60;;;8.52;;
44766;SDS011;30487;48.716;9.272;2023-02-11T11:57:48;16.40;;;8.48;;
44766;SDS011;30487;48.716;9.272;2023-02-11T12:00:15;16.17;;;8.82;;
44766;SDS011;30487;48.716;9.272;2023-02-11T12:05:54;18.90;;;8.65;;
44766;SDS011;30487;48.716;9.272;2023-02-11T12:08:43;15.13;;;9.00;;
44766;SDS011;30487;48.716;9.272;2023-02-11T12:37:40;14.98;;;8.75;;
44766;SDS011;30487;48.716;9.272;2023-02-11T12:59:00;14.93;;;8.45;;
44766;SDS011;30487;48.716;9.272;2023-02-11T13:01:32;16.17;;;9.32;;
44766;SDS011;30487;48.716;9.272;2023-02-11T13:04:09;16.88;;;9.35;;
44766;SDS011;30487;48.716;9.272;2023-02-11T13:06:47;15.63;;;9.02;;
44766;SDS011;30487;48.716;9.272;2023-02-11T13:09:22;16.40;;;8.82;;
44766;SDS011;30487;48.716;9.272;2023-02-11T13:11:51;17.13;;;8.73;;
44766;SDS011;30487;48.716;9.272;2023-02-11T13:14:30;17.20;;;7.93;;
44766;SDS011;30487;48.716;9.272;2023-02-11T13:17:00;15.45;;;7.70;;
44766;SDS011;30487;48.716;9.272;2023-02-11T13:19:40;12.55;;;7.00;;
44766;SDS011;30487;48.716;9.272;2023-02-11T13:22:55;12.88;;;6.55;;
44766;SDS011;30487;48.716;9.272;2023-02-11T13:25:20;15.40;;;6.32;;
44766;SDS011;30487;48.716;9.272;2023-02-11T13:30:49;11.75;;;6.63;;
44766;SDS011;30487;48.716;9.272;2023-02-11T13:33:32;9.70;;;6.20;;
44766;SDS011;30487;48.716;9.272;2023-02-11T13:38:24;10.30;;;5.38;;
44766;SDS011;30487;48.716;9.272;2023-02-11T13:44:36;14.48;;;4.93;;
44766;SDS011;30487;48.716;9.272;2023-02-11T13:46:56;11.57;;;5.35;;
44766;SDS011;30487;48.716;9.272;2023-02-11T13:49:34;13.23;;;6.03;;
44766;SDS011;30487;48.716;9.272;2023-02-11T13:52:05;9.18;;;5.10;;
44766;SDS011;30487;48.716;9.272;2023-02-11T13:54:45;11.95;;;5.82;;
44766;SDS011;30487;48.716;9.272;2023-02-11T14:05:21;10.70;;;5.65;;
44766;SDS011;30487;48.716;9.272;2023-02-11T14:08:17;13.23;;;6.07;;
44766;SDS011;30487;48.716;9.272;2023-02-11T14:16:18;12.98;;;6.50;;
44766;SDS011;30487;48.716;9.272;2023-02-11T14:21:18;15.38;;;7.53;;
44766;SDS011;30487;48.716;9.272;2023-02-11T14:23:50;13.57;;;6.95;;
44766;SDS011;30487;48.716;9.272;2023-02-11T14:34:55;16.70;;;8.32;;
44766;SDS011;30487;48.716;9.272;2023-02-11T14:40:24;15.55;;;8.40;;
44766;SDS011;30487;48.716;9.272;2023-02-11T14:43:09;16.40;;;8.15;;
44766;SDS011;30487;48.716;9.272;2023-02-11T14:45:47;16.42;;;7.85;;
44766;SDS011;30487;48.716;9.272;2023-02-11T14:48:16;14.82;;;8.75;;
44766;SDS011;30487;48.716;9.272;2023-02-11T14:50:44;15.35;;;8.85;;
44766;SDS011;30487;48.716;9.272;2023-02-11T14:53:14;16.80;;;9.15;;
44766;SDS011;30487;48.716;9.272;2023-02-11T14:55:49;17.33;;;8.80;;
44766;SDS011;30487;48.716;9.272;2023-02-11T14:58:23;16.25;;;8.65;;
44766;SDS011;30487;48.716;9.272;2023-02-11T15:03:30;18.08;;;8.73;;
44766;SDS011;30487;48.716;9.272;2023-02-11T15:08:32;15.63;;;9.38;;
44766;SDS011;30487;48.716;9.272;2023-02-11T15:11:01;18.45;;;9.23;;
44766;SDS011;30487;48.716;9.272;2023-02-11T15:13:31;18.80;;;9.02;;
44766;SDS011;30487;48.716;9.272;2023-02-11T15:16:05;17.85;;;9.52;;
44766;SDS011;30487;48.716;9.272;2023-02-11T15:18:34;17.73;;;8.45;;
44766;SDS011;30487;48.716;9.272;2023-02-11T15:21:03;20.73;;;9.25;;
44766;SDS011;30487;48.716;9.272;2023-02-11T15:23:29;18.23;;;8.95;;
44766;SDS011;30487;48.716;9.272;2023-02-11T15:25:56;19.58;;;9.43;;
44766;SDS011;30487;48.716;9.272;2023-02-11T15:28:27;15.02;;;7.97;;
44766;SDS011;30487;48.716;9.272;2023-02-11T15:30:59;14.20;;;7.50;;
44766;SDS011;30487;48.716;9.272;2023-02-11T15:33:29;19.67;;;9.20;;
44766;SDS011;30487;48.716;9.272;2023-02-11T15:35:57;14.93;;;8.00;;
44766;SDS011;30487;48.716;9.272;2023-02-11T15:38:25;15.40;;;8.23;;
44766;SDS011;30487;48.716;9.272;2023-02-11T15:40:53;17.67;;;9.32;;
44766;SDS011;30487;48.716;9.272;2023-02-11T15:43:43;16.25;;;9.05;;
44766;SDS011;30487;48.716;9.272;2023-02-11T15:46:13;16.05;;;8.95;;
44766;SDS011;30487;48.716;9.272;2023-02-11T15:48:46;20.75;;;9.95;;
44766;SDS011;30487;48.716;9.272;2023-02-11T15:51:21;19.90;;;10.33;;
44766;SDS011;30487;48.716;9.272;2023-02-11T15:53:53;16.05;;;9.02;;
44766;SDS011;30487;48.716;9.272;2023-02-11T15:56:27;16.35;;;8.98;;
44766;SDS011;30487;48.716;9.272;2023-02-11T15:58:57;17.02;;;9.10;;
44766;SDS011;30487;48.716;9.272;2023-02-11T16:01:33;17.95;;;9.55;;
44766;SDS011;30487;48.716;9.272;2023-02-11T16:04:00;16.58;;;9.30;;
44766;SDS011;30487;48.716;9.272;2023-02-11T16:06:34;15.85;;;9.38;;
44766;SDS011;30487;48.716;9.272;2023-02-11T16:09:03;16.73;;;9.15;;
44766;SDS011;30487;48.716;9.272;2023-02-11T16:14:19;16.63;;;9.35;;
44766;SDS011;30487;48.716;9.272;2023-02-11T16:16:46;16.60;;;9.15;;
44766;SDS011;30487;48.716;9.272;2023-02-11T16:19:16;20.13;;;8.88;;
44766;SDS011;30487;48.716;9.272;2023-02-11T16:21:43;16.95;;;9.35;;
44766;SDS011;30487;48.716;9.272;2023-02-11T16:24:44;17.98;;;9.48;;
44766;SDS011;30487;48.716;9.272;2023-02-11T16:27:04;19.85;;;10.05;;
44766;SDS011;30487;48.716;9.272;2023-02-11T16:29:40;15.88;;;9.13;;
44766;SDS011;30487;48.716;9.272;2023-02-11T16:32:18;19.05;;;9.50;;
44766;SDS011;30487;48.716;9.272;2023-02-11T16:34:45;15.30;;;8.88;;
44766;SDS011;30487;48.716;9.272;2023-02-11T16:37:11;21.10;;;9.52;;
44766;SDS011;30487;48.716;9.272;2023-02-11T16:39:37;18.65;;;9.77;;
44766;SDS011;30487;48.716;9.272;2023-02-11T16:42:03;19.52;;;10.32;;
44766;SDS011;30487;48.716;9.272;2023-02-11T16:44:30;20.33;;;10.30;;
44766;SDS011;30487;48.716;9.272;2023-02-11T16:46:57;18.77;;;9.63;;
44766;SDS011;30487;48.716;9.272;2023-02-11T16:51:53;21.35;;;10.32;;
44766;SDS011;30487;48.716;9.272;2023-02-11T16:54:21;19.63;;;10.52;;
44766;SDS011;30487;48.716;9.272;2023-02-11T16:56:47;20.10;;;10.02;;
44766;SDS011;30487;48.716;9.272;2023-02-11T16:59:14;18.30;;;10.70;;
44766;SDS011;30487;48.716;9.272;2023-02-11T17:01:40;19.75;;;10.93;;
44766;SDS011;30487;48.716;9.272;2023-02-11T17:04:13;21.73;;;11.30;;
44766;SDS011;30487;48.716;9.272;2023-02-11T17:06:45;21.80;;;11.20;;
44766;SDS011;30487;48.716;9.272;2023-02-11T17:09:30;19.88;;;10.30;;
44766;SDS011;30487;48.716;9.272;2023-02-11T17:11:55;21.23;;;11.18;;
44766;SDS011;30487;48.716;9.272;2023-02-11T17:14:21;20.58;;;10.77;;
44766;SDS011;30487;48.716;9.272;2023-02-11T17:16:47;20.15;;;10.68;;
44766;SDS011;30487;48.716;9.272;2023-02-11T17:19:14;20.05;;;10.63;;
44766;SDS011;30487;48.716;9.272;2023-02-11T17:21:41;23.33;;;11.88;;
44766;SDS011;30487;48.716;9.272;2023-02-11T17:24:11;24.23;;;11.68;;
44766;SDS011;30487;48.716;9.272;2023-02-11T17:26:38;21.92;;;11.57;;
44766;SDS011;30487;48.716;9.272;2023-02-11T17:29:05;25.02;;;11.57;;
44766;SDS011;30487;48.716;9.272;2023-02-11T17:31:31;22.58;;;11.73;;
44766;SDS011;30487;48.716;9.272;2023-02-11T17:33:57;24.17;;;11.38;;
44766;SDS011;30487;48.716;9.272;2023-02-11T17:36:23;28.25;;;13.55;;
44766;SDS011;30487;48.716;9.272;2023-02-11T17:38:48;29.95;;;15.32;;
44766;SDS011;30487;48.716;9.272;2023-02-11T17:41:15;51.15;;;22.30;;